OOLOV EBGB-ZZZZ
Flight info
| Callsign | OOLOV |
|---|---|
| Flight time | N/A |
| Altitude | 1500 |
| Route | |
| Aircraft |
Departure
| Time | 2026-04-26 19:49 |
|---|---|
| Airport | Grimbergen Airfield (EBGB) |
Arrival
| Time | N/A |
|---|---|
| Airport | ZZZZ |
| Time | Latitude | Longitude | Altitude | Speed | Heading |
|---|---|---|---|---|---|
| 2026-04-26 19:49 | 51.11255 | 4.33491 | 1550 ft | 101 kts | 2° |
| 2026-04-26 19:49 | 51.11981 | 4.33470 | 1507 ft | 108 kts | 7° |
| 2026-04-26 19:49 | 51.12789 | 4.33496 | 1389 ft | 120 kts | 2° |
| 2026-04-26 19:49 | 51.13573 | 4.33455 | 1471 ft | 108 kts | 6° |
| 2026-04-26 19:50 | 51.14290 | 4.33515 | 1538 ft | 103 kts | 8° |
| 2026-04-26 19:50 | 51.15003 | 4.33625 | 1482 ft | 101 kts | 15° |
| 2026-04-26 19:50 | 51.15656 | 4.33991 | 1474 ft | 100 kts | 26° |
| 2026-04-26 19:50 | 51.16280 | 4.34453 | 1548 ft | 98 kts | 30° |
| 2026-04-26 19:51 | 51.16880 | 4.34971 | 1507 ft | 98 kts | 32° |
| 2026-04-26 19:51 | 51.17470 | 4.35524 | 1438 ft | 100 kts | 34° |
| 2026-04-26 19:51 | 51.18051 | 4.36123 | 1508 ft | 97 kts | 37° |
| 2026-04-26 19:51 | 51.18592 | 4.36756 | 1567 ft | 98 kts | 37° |
| 2026-04-26 19:52 | 51.19154 | 4.37408 | 1508 ft | 101 kts | 40° |
| 2026-04-26 19:52 | 51.19695 | 4.38077 | 1513 ft | 96 kts | 38° |
| 2026-04-26 19:52 | 51.20229 | 4.38747 | 1551 ft | 99 kts | 45° |
| 2026-04-26 19:52 | 51.20736 | 4.39515 | 1516 ft | 102 kts | 45° |
| 2026-04-26 19:53 | 51.21238 | 4.40284 | 1503 ft | 102 kts | 46° |
| 2026-04-26 19:53 | 51.21742 | 4.41088 | 1489 ft | 102 kts | 49° |
| 2026-04-26 19:53 | 51.22168 | 4.41992 | 1476 ft | 102 kts | 59° |
| 2026-04-26 19:53 | 51.22575 | 4.42926 | 1440 ft | 102 kts | 53° |
| 2026-04-26 19:54 | 51.22998 | 4.43789 | 1443 ft | 98 kts | 52° |
| 2026-04-26 19:54 | 51.23522 | 4.44403 | 1520 ft | 97 kts | 9° |
| 2026-04-26 19:54 | 51.24219 | 4.44478 | 1523 ft | 104 kts | 1° |
| 2026-04-26 19:54 | 51.24964 | 4.44423 | 1506 ft | 108 kts | 3° |
| 2026-04-26 19:55 | 51.25698 | 4.44402 | 1550 ft | 107 kts | 358° |
| 2026-04-26 19:55 | 51.26444 | 4.44172 | 1587 ft | 109 kts | 353° |
| 2026-04-26 19:55 | 51.27181 | 4.43848 | 1507 ft | 111 kts | 348° |
| 2026-04-26 19:55 | 51.27922 | 4.43589 | 1426 ft | 108 kts | 360° |
| 2026-04-26 19:56 | 51.28660 | 4.43668 | 1402 ft | 100 kts | 23° |
| 2026-04-26 19:56 | 51.29193 | 4.44280 | 1551 ft | 92 kts | 44° |
| 2026-04-26 19:56 | 51.29694 | 4.44987 | 1581 ft | 103 kts | 40° |
| 2026-04-26 19:56 | 51.30289 | 4.45666 | 1490 ft | 104 kts | 38° |
| 2026-04-26 19:57 | 51.30856 | 4.46333 | 1488 ft | 100 kts | 42° |
| 2026-04-26 19:57 | 51.31372 | 4.47044 | 1470 ft | 98 kts | 45° |
| 2026-04-26 19:57 | 51.31869 | 4.47768 | 1441 ft | 95 kts | 46° |
| 2026-04-26 19:57 | 51.32379 | 4.48433 | 1366 ft | 100 kts | 41° |
| 2026-04-26 19:58 | 51.32696 | 4.49286 | 1092 ft | 85 kts | 69° |
| 2026-04-26 19:58 | 51.32906 | 4.50158 | 746 ft | 75 kts | 60° |
| 2026-04-26 19:58 | 51.33296 | 4.50639 | 493 ft | 72 kts | 22° |
| 2026-04-26 19:58 | 51.33788 | 4.50583 | 210 ft | 70 kts | 339° |
| 2026-04-26 19:59 | 51.34213 | 4.50367 | 69 ft | 53 kts | 348° |
| 2026-04-26 19:59 | 51.34490 | 4.50243 | 69 ft | 33 kts | 346° |
| 2026-04-26 19:59 | 51.34670 | 4.50162 | 78 ft | 22 kts | 349° |
| 2026-04-26 19:59 | 51.34747 | 4.50120 | 74 ft | 6 kts | 288° |
| 2026-04-26 20:00 | 51.34738 | 4.50105 | 78 ft | 0 kts | 156° |
| 2026-04-26 20:01 | 51.34591 | 4.50191 | 72 ft | 50 kts | 166° |
| 2026-04-26 20:01 | 51.34129 | 4.50384 | 117 ft | 76 kts | 172° |
| 2026-04-26 20:01 | 51.33609 | 4.50271 | 361 ft | 77 kts | 196° |
| 2026-04-26 20:01 | 51.33178 | 4.50414 | 417 ft | 84 kts | 94° |
| 2026-04-26 20:02 | 51.33434 | 4.51281 | 577 ft | 92 kts | 57° |
| 2026-04-26 20:02 | 51.33870 | 4.51980 | 795 ft | 95 kts | 22° |
| 2026-04-26 20:02 | 51.34565 | 4.51932 | 1001 ft | 98 kts | 354° |
| 2026-04-26 20:02 | 51.34943 | 4.51525 | 1163 ft | 107 kts | 307° |
| 2026-04-26 20:03 | 51.34899 | 4.49875 | 1320 ft | 121 kts | 252° |
| 2026-04-26 20:03 | 51.34609 | 4.48564 | 1503 ft | 127 kts | 250° |
| 2026-04-26 20:03 | 51.34300 | 4.47184 | 1518 ft | 132 kts | 251° |
| 2026-04-26 20:03 | 51.34030 | 4.45796 | 1521 ft | 128 kts | 252° |
| 2026-04-26 20:04 | 51.33749 | 4.44469 | 1540 ft | 124 kts | 252° |
| 2026-04-26 20:04 | 51.33471 | 4.43135 | 1476 ft | 128 kts | 252° |
| 2026-04-26 20:04 | 51.33193 | 4.41823 | 1542 ft | 122 kts | 250° |
| 2026-04-26 20:04 | 51.32911 | 4.40521 | 1557 ft | 127 kts | 252° |
| 2026-04-26 20:05 | 51.32621 | 4.39139 | 1510 ft | 132 kts | 251° |
| 2026-04-26 20:05 | 51.32315 | 4.37757 | 1575 ft | 132 kts | 249° |
| 2026-04-26 20:05 | 51.31982 | 4.36379 | 1595 ft | 134 kts | 247° |
| 2026-04-26 20:05 | 51.31592 | 4.35026 | 1616 ft | 134 kts | 241° |
| 2026-04-26 20:06 | 51.31140 | 4.33702 | 1514 ft | 137 kts | 239° |
| 2026-04-26 20:06 | 51.30645 | 4.32434 | 1506 ft | 138 kts | 237° |
| 2026-04-26 20:06 | 51.30109 | 4.31105 | 1331 ft | 146 kts | 237° |
| 2026-04-26 20:06 | 51.29576 | 4.29762 | 1296 ft | 139 kts | 240° |
| 2026-04-26 20:07 | 51.29207 | 4.28374 | 1255 ft | 136 kts | 254° |
| 2026-04-26 20:07 | 51.29001 | 4.26946 | 1345 ft | 130 kts | 259° |
| 2026-04-26 20:07 | 51.28831 | 4.25500 | 1292 ft | 133 kts | 263° |
| 2026-04-26 20:07 | 51.28724 | 4.24049 | 1294 ft | 131 kts | 261° |
| 2026-04-26 20:08 | 51.28195 | 4.23059 | 1378 ft | 118 kts | 200° |
| 2026-04-26 20:08 | 51.27414 | 4.22740 | 1355 ft | 114 kts | 186° |
| 2026-04-26 20:08 | 51.26651 | 4.22496 | 1484 ft | 110 kts | 188° |
| 2026-04-26 20:08 | 51.25902 | 4.22185 | 1613 ft | 111 kts | 191° |
| 2026-04-26 20:09 | 51.25137 | 4.21837 | 1633 ft | 117 kts | 191° |
| 2026-04-26 20:09 | 51.24338 | 4.21558 | 1624 ft | 119 kts | 184° |
| 2026-04-26 20:09 | 51.23492 | 4.21312 | 1523 ft | 125 kts | 188° |
| 2026-04-26 20:09 | 51.22643 | 4.21008 | 1506 ft | 125 kts | 192° |
| 2026-04-26 20:10 | 51.21808 | 4.20643 | 1506 ft | 125 kts | 193° |
| 2026-04-26 20:10 | 51.20987 | 4.20238 | 1485 ft | 126 kts | 194° |
| 2026-04-26 20:10 | 51.20154 | 4.19824 | 1502 ft | 125 kts | 199° |
| 2026-04-26 20:10 | 51.19353 | 4.19354 | 1545 ft | 122 kts | 193° |
| 2026-04-26 20:11 | 51.18544 | 4.19043 | 1568 ft | 117 kts | 182° |
| 2026-04-26 20:11 | 51.17719 | 4.18999 | 1614 ft | 123 kts | 176° |
| 2026-04-26 20:11 | 51.16893 | 4.19183 | 1653 ft | 121 kts | 162° |
| 2026-04-26 20:12 | 51.15222 | 4.19866 | 1511 ft | 126 kts | 157° |
| 2026-04-26 20:12 | 51.14377 | 4.20256 | 1486 ft | 124 kts | 159° |
| 2026-04-26 20:12 | 51.13558 | 4.20631 | 1491 ft | 121 kts | 160° |
| 2026-04-26 20:12 | 51.12740 | 4.20954 | 1520 ft | 122 kts | 163° |
| 2026-04-26 20:13 | 51.11893 | 4.21211 | 1492 ft | 127 kts | 165° |
| 2026-04-26 20:13 | 51.11022 | 4.21416 | 1403 ft | 125 kts | 169° |
| 2026-04-26 20:13 | 51.10163 | 4.21508 | 1360 ft | 124 kts | 176° |
| 2026-04-26 20:13 | 51.09305 | 4.21467 | 1343 ft | 123 kts | 176° |
| 2026-04-26 20:14 | 51.08441 | 4.21391 | 1347 ft | 123 kts | 181° |
| 2026-04-26 20:14 | 51.07600 | 4.21227 | 1358 ft | 120 kts | 183° |
| 2026-04-26 20:14 | 51.06785 | 4.21012 | 1402 ft | 118 kts | 185° |
| 2026-04-26 20:14 | 51.05968 | 4.20776 | 1377 ft | 116 kts | 180° |
| 2026-04-26 20:15 | 51.05241 | 4.21067 | 1464 ft | 112 kts | 142° |
| 2026-04-26 20:15 | 51.04730 | 4.22013 | 1364 ft | 114 kts | 116° |
| 2026-04-26 20:15 | 51.04417 | 4.23125 | 1353 ft | 109 kts | 96° |
| 2026-04-26 20:15 | 51.04477 | 4.24319 | 1341 ft | 113 kts | 81° |
| 2026-04-26 20:16 | 51.04555 | 4.25535 | 1464 ft | 108 kts | 88° |
| 2026-04-26 20:16 | 51.04537 | 4.26729 | 1481 ft | 113 kts | 97° |
| 2026-04-26 20:16 | 51.04318 | 4.27956 | 1350 ft | 116 kts | 110° |
| 2026-04-26 20:16 | 51.04060 | 4.29107 | 1426 ft | 108 kts | 104° |
| 2026-04-26 20:17 | 51.03859 | 4.30257 | 1377 ft | 108 kts | 101° |
| 2026-04-26 20:17 | 51.03668 | 4.31437 | 1312 ft | 111 kts | 102° |
| 2026-04-26 20:17 | 51.03547 | 4.32639 | 1259 ft | 110 kts | 91° |
| 2026-04-26 20:17 | 51.03539 | 4.33448 | 1251 ft | 111 kts | 89° |
| 2026-04-26 20:18 | 51.03695 | 4.35000 | 1217 ft | 106 kts | 61° |
| 2026-04-26 20:18 | 51.03950 | 4.36129 | 1110 ft | 110 kts | 69° |
| 2026-04-26 20:18 | 51.04185 | 4.37146 | 1356 ft | 92 kts | 71° |
| 2026-04-26 20:18 | 51.04349 | 4.38136 | 1477 ft | 94 kts | 83° |
| 2026-04-26 20:19 | 51.04607 | 4.39134 | 1407 ft | 101 kts | 33° |
| 2026-04-26 20:19 | 51.05301 | 4.38898 | 1451 ft | 112 kts | 336° |
| 2026-04-26 20:19 | 51.05969 | 4.38155 | 1375 ft | 116 kts | 326° |
| 2026-04-26 20:19 | 51.06593 | 4.37348 | 1427 ft | 116 kts | 327° |
| 2026-04-26 20:20 | 51.07230 | 4.36525 | 1439 ft | 119 kts | 329° |
| 2026-04-26 20:20 | 51.07941 | 4.35867 | 1462 ft | 119 kts | 344° |
| 2026-04-26 20:20 | 51.08728 | 4.35633 | 1501 ft | 109 kts | 8° |
| 2026-04-26 20:20 | 51.09168 | 4.35930 | 1497 ft | 106 kts | 52° |
| 2026-04-26 20:21 | 51.09196 | 4.37003 | 1468 ft | 110 kts | 144° |
| 2026-04-26 20:21 | 51.08411 | 4.37270 | 1596 ft | 110 kts | 127° |
| 2026-04-26 20:21 | 51.08429 | 4.38351 | 1738 ft | 110 kts | 55° |
| 2026-04-26 20:21 | 51.09179 | 4.38945 | 1483 ft | 124 kts | 21° |
| 2026-04-26 20:22 | 51.09971 | 4.39337 | 1465 ft | 114 kts | 16° |
| 2026-04-26 20:22 | 51.10679 | 4.39832 | 1420 ft | 113 kts | 41° |
| 2026-04-26 20:22 | 51.11237 | 4.40800 | 1441 ft | 113 kts | 53° |
| 2026-04-26 20:22 | 51.11748 | 4.41805 | 1472 ft | 122 kts | 50° |
| 2026-04-26 20:23 | 51.12420 | 4.42526 | 1647 ft | 118 kts | 351° |
| 2026-04-26 20:23 | 51.12698 | 4.41197 | 1532 ft | 150 kts | 268° |
| 2026-04-26 20:23 | 51.12716 | 4.39515 | 1505 ft | 150 kts | 267° |
| 2026-04-26 20:23 | 51.12687 | 4.37882 | 1527 ft | 147 kts | 270° |
| 2026-04-26 20:24 | 51.12689 | 4.36271 | 1575 ft | 149 kts | 271° |
| 2026-04-26 20:24 | 51.12669 | 4.34650 | 1584 ft | 144 kts | 270° |
| 2026-04-26 20:24 | 51.12648 | 4.33052 | 1608 ft | 148 kts | 270° |
| 2026-04-26 20:24 | 51.12628 | 4.31395 | 1603 ft | 149 kts | 270° |
| 2026-04-26 20:25 | 51.12611 | 4.29750 | 1599 ft | 149 kts | 270° |
| 2026-04-26 20:25 | 51.12598 | 4.28651 | 1607 ft | 152 kts | 271° |
| 2026-04-26 20:25 | 51.12649 | 4.26364 | 1582 ft | 154 kts | 290° |
| 2026-04-26 20:25 | 51.13290 | 4.25129 | 1607 ft | 143 kts | 335° |
| 2026-04-26 20:26 | 51.14229 | 4.24954 | 1599 ft | 134 kts | 20° |
| 2026-04-26 20:26 | 51.14932 | 4.25825 | 1600 ft | 129 kts | 61° |
| 2026-04-26 20:26 | 51.15127 | 4.27199 | 1599 ft | 127 kts | 85° |
| 2026-04-26 20:26 | 51.15175 | 4.28603 | 1526 ft | 131 kts | 87° |
| 2026-04-26 20:27 | 51.15229 | 4.30042 | 1492 ft | 130 kts | 86° |
| 2026-04-26 20:27 | 51.15281 | 4.31463 | 1491 ft | 126 kts | 86° |
| 2026-04-26 20:27 | 51.15324 | 4.32827 | 1497 ft | 121 kts | 86° |
| 2026-04-26 20:27 | 51.15362 | 4.34179 | 1499 ft | 124 kts | 88° |
| 2026-04-26 20:28 | 51.15403 | 4.35559 | 1490 ft | 124 kts | 86° |
| 2026-04-26 20:28 | 51.15448 | 4.36857 | 1674 ft | 108 kts | 85° |
| 2026-04-26 20:28 | 51.15482 | 4.38021 | 1945 ft | 104 kts | 85° |
| 2026-04-26 20:28 | 51.15514 | 4.39255 | 1983 ft | 118 kts | 86° |
| 2026-04-26 20:29 | 51.15566 | 4.40590 | 1988 ft | 122 kts | 86° |
| 2026-04-26 20:29 | 51.15618 | 4.41970 | 2001 ft | 130 kts | 85° |
| 2026-04-26 20:29 | 51.15677 | 4.43440 | 1996 ft | 136 kts | 87° |
| 2026-04-26 20:29 | 51.15727 | 4.44914 | 2006 ft | 130 kts | 86° |
| 2026-04-26 20:30 | 51.15772 | 4.46330 | 1997 ft | 125 kts | 86° |
| 2026-04-26 20:30 | 51.15815 | 4.47728 | 1994 ft | 128 kts | 86° |
| 2026-04-26 20:30 | 51.15867 | 4.49148 | 2005 ft | 130 kts | 86° |
| 2026-04-26 20:30 | 51.15918 | 4.50635 | 1992 ft | 135 kts | 86° |
| 2026-04-26 20:31 | 51.15978 | 4.52138 | 1991 ft | 136 kts | 86° |
| 2026-04-26 20:31 | 51.15991 | 4.53581 | 2056 ft | 131 kts | 89° |
| 2026-04-26 20:31 | 51.16030 | 4.55083 | 1993 ft | 140 kts | 84° |
| 2026-04-26 20:31 | 51.16113 | 4.56588 | 2005 ft | 131 kts | 86° |
| 2026-04-26 20:32 | 51.16166 | 4.58028 | 2018 ft | 130 kts | 86° |
| 2026-04-26 20:32 | 51.16219 | 4.59512 | 2001 ft | 134 kts | 86° |
| 2026-04-26 20:32 | 51.16276 | 4.61005 | 1992 ft | 135 kts | 86° |
| 2026-04-26 20:32 | 51.16330 | 4.62466 | 1991 ft | 129 kts | 86° |
| 2026-04-26 20:33 | 51.16378 | 4.63873 | 1998 ft | 126 kts | 86° |
| 2026-04-26 20:33 | 51.16432 | 4.65278 | 1994 ft | 129 kts | 84° |
| 2026-04-26 20:33 | 51.16489 | 4.66741 | 1993 ft | 137 kts | 86° |
| 2026-04-26 20:33 | 51.16547 | 4.68269 | 1984 ft | 138 kts | 83° |
| 2026-04-26 20:34 | 51.16719 | 4.69778 | 1988 ft | 139 kts | 80° |
| 2026-04-26 20:34 | 51.16871 | 4.71254 | 1992 ft | 131 kts | 81° |
| 2026-04-26 20:34 | 51.17015 | 4.72646 | 1992 ft | 128 kts | 81° |
| 2026-04-26 20:34 | 51.17160 | 4.74032 | 1981 ft | 127 kts | 81° |
| 2026-04-26 20:35 | 51.17253 | 4.75460 | 1982 ft | 126 kts | 81° |
| 2026-04-26 20:35 | 51.17387 | 4.76823 | 1998 ft | 125 kts | 81° |
| 2026-04-26 20:35 | 51.17500 | 4.78217 | 1988 ft | 127 kts | 88° |
| 2026-04-26 20:35 | 51.17481 | 4.79651 | 1984 ft | 135 kts | 88° |
| 2026-04-26 20:36 | 51.17449 | 4.81131 | 2005 ft | 135 kts | 91° |
| 2026-04-26 20:36 | 51.17390 | 4.82671 | 1982 ft | 142 kts | 94° |
| 2026-04-26 20:36 | 51.17304 | 4.84238 | 1993 ft | 143 kts | 94° |
| 2026-04-26 20:36 | 51.17249 | 4.85836 | 1973 ft | 143 kts | 92° |
| 2026-04-26 20:37 | 51.17202 | 4.87366 | 1983 ft | 134 kts | 92° |
| 2026-04-26 20:37 | 51.17143 | 4.88822 | 1983 ft | 131 kts | 92° |
| 2026-04-26 20:37 | 51.17091 | 4.90267 | 1985 ft | 138 kts | 92° |
| 2026-04-26 20:37 | 51.17033 | 4.91821 | 1970 ft | 140 kts | 93° |
| 2026-04-26 20:38 | 51.16978 | 4.93305 | 1989 ft | 131 kts | 92° |
| 2026-04-26 20:38 | 51.16928 | 4.94767 | 1969 ft | 135 kts | 92° |
| 2026-04-26 20:38 | 51.16869 | 4.96225 | 1981 ft | 130 kts | 92° |
| 2026-04-26 20:38 | 51.16814 | 4.97660 | 2002 ft | 131 kts | 92° |
| 2026-04-26 20:39 | 51.16769 | 4.99163 | 1986 ft | 140 kts | 92° |
| 2026-04-26 20:39 | 51.16712 | 5.00701 | 1983 ft | 137 kts | 92° |
| 2026-04-26 20:39 | 51.16648 | 5.02209 | 1986 ft | 135 kts | 95° |
| 2026-04-26 20:39 | 51.16580 | 5.03698 | 1973 ft | 133 kts | 92° |
| 2026-04-26 20:40 | 51.16536 | 5.05149 | 1979 ft | 130 kts | 89° |
| 2026-04-26 20:40 | 51.16571 | 5.06595 | 1990 ft | 132 kts | 88° |
| 2026-04-26 20:40 | 51.16594 | 5.08073 | 1977 ft | 131 kts | 88° |
| 2026-04-26 20:40 | 51.16617 | 5.09481 | 1978 ft | 128 kts | 88° |
| 2026-04-26 20:41 | 51.16648 | 5.10899 | 1983 ft | 129 kts | 84° |
| 2026-04-26 20:41 | 51.16755 | 5.12310 | 1982 ft | 128 kts | 82° |
| 2026-04-26 20:41 | 51.16866 | 5.13706 | 1980 ft | 126 kts | 83° |
| 2026-04-26 20:41 | 51.16974 | 5.15123 | 1978 ft | 130 kts | 83° |
| 2026-04-26 20:42 | 51.17089 | 5.16576 | 1990 ft | 136 kts | 83° |
| 2026-04-26 20:42 | 51.17210 | 5.18097 | 1979 ft | 139 kts | 82° |
| 2026-04-26 20:42 | 51.17363 | 5.19610 | 1947 ft | 137 kts | 71° |
| 2026-04-26 20:42 | 51.17687 | 5.21015 | 1936 ft | 134 kts | 70° |
| 2026-04-26 20:43 | 51.18208 | 5.21942 | 2068 ft | 104 kts | 24° |
| 2026-04-26 20:43 | 51.18919 | 5.21925 | 1834 ft | 109 kts | 347° |
| 2026-04-26 20:43 | 51.19586 | 5.21358 | 1513 ft | 109 kts | 338° |
| 2026-04-26 20:43 | 51.20174 | 5.20726 | 1298 ft | 103 kts | 298° |
| 2026-04-26 20:44 | 51.20137 | 5.19581 | 1119 ft | 105 kts | 244° |
| 2026-04-26 20:44 | 51.19944 | 5.18494 | 952 ft | 107 kts | 252° |
| 2026-04-26 20:44 | 51.19531 | 5.17587 | 1014 ft | 102 kts | 203° |
| 2026-04-26 20:44 | 51.18856 | 5.17486 | 1022 ft | 98 kts | 164° |
| 2026-04-26 20:45 | 51.18211 | 5.17796 | 958 ft | 88 kts | 151° |
| 2026-04-26 20:45 | 51.17690 | 5.18153 | 954 ft | 83 kts | 150° |
| 2026-04-26 20:45 | 51.17284 | 5.18612 | 852 ft | 61 kts | 109° |
| 2026-04-26 20:45 | 51.17303 | 5.19315 | 658 ft | 64 kts | 75° |
| 2026-04-26 20:46 | 51.17446 | 5.19988 | 491 ft | 64 kts | 57° |
| 2026-04-26 20:46 | 51.17649 | 5.20632 | 326 ft | 65 kts | 61° |
| 2026-04-26 20:46 | 51.17849 | 5.21272 | 174 ft | 64 kts | 54° |
| 2026-04-26 20:46 | 51.18013 | 5.21828 | 128 ft | 41 kts | 57° |
| 2026-04-26 20:47 | 51.18148 | 5.22289 | 127 ft | 64 kts | 64° |
| 2026-04-26 20:47 | 51.18275 | 5.22745 | 256 ft | 67 kts | 65° |
| 2026-04-26 20:47 | 51.18501 | 5.22410 | 475 ft | 81 kts | 247° |
| 2026-04-26 20:47 | 51.18253 | 5.21535 | 661 ft | 86 kts | 244° |
| 2026-04-26 20:48 | 51.18045 | 5.20625 | 867 ft | 91 kts | 243° |
| 2026-04-26 20:48 | 51.17766 | 5.19677 | 1088 ft | 99 kts | 243° |
| 2026-04-26 20:48 | 51.17471 | 5.18674 | 1296 ft | 100 kts | 243° |
| 2026-04-26 20:48 | 51.17179 | 5.17674 | 1510 ft | 102 kts | 242° |
| 2026-04-26 20:49 | 51.16869 | 5.16629 | 1725 ft | 108 kts | 243° |
| 2026-04-26 20:49 | 51.16520 | 5.15461 | 1902 ft | 120 kts | 244° |
| 2026-04-26 20:49 | 51.16113 | 5.14287 | 1969 ft | 125 kts | 231° |
| 2026-04-26 20:49 | 51.15552 | 5.13190 | 1987 ft | 130 kts | 229° |
| 2026-04-26 20:50 | 51.14959 | 5.12062 | 1976 ft | 134 kts | 229° |
| 2026-04-26 20:50 | 51.14337 | 5.10882 | 1979 ft | 142 kts | 227° |
| 2026-04-26 20:50 | 51.13703 | 5.09691 | 1973 ft | 139 kts | 229° |
| 2026-04-26 20:50 | 51.13090 | 5.08523 | 1988 ft | 137 kts | 229° |
| 2026-04-26 20:51 | 51.12465 | 5.07339 | 1976 ft | 141 kts | 229° |
| 2026-04-26 20:51 | 51.11837 | 5.06139 | 1977 ft | 139 kts | 229° |
| 2026-04-26 20:51 | 51.11225 | 5.04971 | 1973 ft | 136 kts | 228° |
| 2026-04-26 20:51 | 51.10619 | 5.03817 | 1975 ft | 135 kts | 229° |
| 2026-04-26 20:52 | 51.10023 | 5.02691 | 1975 ft | 135 kts | 228° |
| 2026-04-26 20:52 | 51.09380 | 5.01621 | 1966 ft | 133 kts | 216° |
| 2026-04-26 20:52 | 51.08636 | 5.00762 | 1974 ft | 132 kts | 213° |
| 2026-04-26 20:52 | 51.07875 | 4.99912 | 1975 ft | 132 kts | 212° |
| 2026-04-26 20:53 | 51.07120 | 4.99071 | 1981 ft | 134 kts | 212° |
| 2026-04-26 20:53 | 51.06350 | 4.98224 | 1987 ft | 141 kts | 212° |
| 2026-04-26 20:53 | 51.05555 | 4.97291 | 1970 ft | 140 kts | 221° |
| 2026-04-26 20:53 | 51.04876 | 4.96208 | 1974 ft | 137 kts | 224° |
| 2026-04-26 20:54 | 51.04242 | 4.95089 | 1975 ft | 137 kts | 237° |
| 2026-04-26 20:54 | 51.03787 | 4.93751 | 1977 ft | 137 kts | 243° |
| 2026-04-26 20:54 | 51.03374 | 4.92391 | 1981 ft | 136 kts | 244° |
| 2026-04-26 20:54 | 51.02974 | 4.91032 | 1983 ft | 136 kts | 245° |
| 2026-04-26 20:55 | 51.02575 | 4.89638 | 1974 ft | 142 kts | 244° |
| 2026-04-26 20:55 | 51.02169 | 4.88225 | 1971 ft | 139 kts | 245° |
| 2026-04-26 20:55 | 51.01769 | 4.86835 | 1981 ft | 139 kts | 245° |
| 2026-04-26 20:55 | 51.01359 | 4.85410 | 1978 ft | 141 kts | 245° |
| 2026-04-26 20:56 | 51.00958 | 4.84009 | 1983 ft | 138 kts | 245° |
| 2026-04-26 20:56 | 51.00552 | 4.82584 | 1986 ft | 145 kts | 245° |
| 2026-04-26 20:56 | 51.00136 | 4.81136 | 1979 ft | 142 kts | 244° |
| 2026-04-26 20:56 | 50.99730 | 4.79725 | 1982 ft | 139 kts | 245° |
| 2026-04-26 20:57 | 50.99319 | 4.78281 | 1984 ft | 150 kts | 244° |
| 2026-04-26 20:57 | 50.98887 | 4.76801 | 1982 ft | 149 kts | 245° |
| 2026-04-26 20:57 | 50.98461 | 4.75326 | 1990 ft | 145 kts | 245° |
| 2026-04-26 20:57 | 50.98047 | 4.73865 | 1990 ft | 145 kts | 246° |
| 2026-04-26 20:58 | 50.97631 | 4.72424 | 1988 ft | 143 kts | 245° |
| 2026-04-26 20:58 | 50.97214 | 4.70978 | 2001 ft | 147 kts | 244° |
| 2026-04-26 20:58 | 50.96779 | 4.69480 | 1979 ft | 148 kts | 245° |
| 2026-04-26 20:58 | 50.96364 | 4.68015 | 2000 ft | 146 kts | 244° |
| 2026-04-26 20:59 | 50.95945 | 4.66554 | 1984 ft | 143 kts | 244° |
| 2026-04-26 20:59 | 50.95533 | 4.65140 | 1998 ft | 142 kts | 244° |
| 2026-04-26 20:59 | 50.95114 | 4.63680 | 2000 ft | 150 kts | 245° |
| 2026-04-26 20:59 | 50.94697 | 4.62185 | 2010 ft | 146 kts | 246° |
| 2026-04-26 21:00 | 50.94300 | 4.60707 | 2001 ft | 146 kts | 247° |
| 2026-04-26 21:00 | 50.93898 | 4.59224 | 2001 ft | 145 kts | 243° |
| 2026-04-26 21:00 | 50.93458 | 4.57825 | 1996 ft | 138 kts | 242° |
| 2026-04-26 21:00 | 50.93033 | 4.56449 | 1989 ft | 140 kts | 244° |
| 2026-04-26 21:01 | 50.92633 | 4.55047 | 1991 ft | 139 kts | 245° |
| 2026-04-26 21:01 | 50.92243 | 4.53710 | 2007 ft | 134 kts | 244° |
| 2026-04-26 21:01 | 50.91841 | 4.52318 | 1992 ft | 136 kts | 245° |
| 2026-04-26 21:01 | 50.91453 | 4.50951 | 2010 ft | 137 kts | 243° |
| 2026-04-26 21:02 | 50.91038 | 4.49556 | 2001 ft | 143 kts | 243° |
| 2026-04-26 21:02 | 50.90600 | 4.48134 | 2004 ft | 143 kts | 243° |
| 2026-04-26 21:02 | 50.90193 | 4.46722 | 2180 ft | 129 kts | 252° |
| 2026-04-26 21:02 | 50.89897 | 4.45367 | 2102 ft | 135 kts | 248° |
| 2026-04-26 21:03 | 50.89528 | 4.44178 | 2103 ft | 113 kts | 230° |
| 2026-04-26 21:03 | 50.88889 | 4.43428 | 1926 ft | 113 kts | 201° |
| 2026-04-26 21:03 | 50.88184 | 4.43057 | 1857 ft | 96 kts | 161° |
| 2026-04-26 21:03 | 50.88252 | 4.43785 | 1561 ft | 93 kts | 66° |
| 2026-04-26 21:04 | 50.88329 | 4.44804 | 1305 ft | 92 kts | 94° |
| 2026-04-26 21:04 | 50.88338 | 4.45807 | 804 ft | 102 kts | 73° |
| 2026-04-26 21:04 | 50.88612 | 4.46907 | 381 ft | 104 kts | 63° |
| 2026-04-26 21:04 | 50.88850 | 4.47841 | 241 ft | 83 kts | 57° |
| 2026-04-26 21:05 | 50.89028 | 4.48601 | 175 ft | 61 kts | 69° |
| 2026-04-26 21:05 | 50.89147 | 4.49106 | 170 ft | 41 kts | 70° |
| 2026-04-26 21:05 | 50.89282 | 4.49367 | 168 ft | 41 kts | 15° |
| 2026-04-26 21:05 | 50.89724 | 4.49556 | 149 ft | 86 kts | 15° |
| 2026-04-26 21:06 | 50.90384 | 4.49828 | 127 ft | 110 kts | 17° |
| 2026-04-26 21:06 | 50.91097 | 4.50128 | 378 ft | 69 kts | 19° |
| 2026-04-26 21:06 | 50.91447 | 4.50488 | 482 ft | 66 kts | 103° |
| 2026-04-26 21:06 | 50.90934 | 4.50587 | 404 ft | 95 kts | 177° |
| 2026-04-26 21:07 | 50.90333 | 4.51077 | 469 ft | 104 kts | 151° |
| 2026-04-26 21:07 | 50.89749 | 4.51704 | 688 ft | 100 kts | 135° |
| 2026-04-26 21:07 | 50.89321 | 4.52559 | 836 ft | 103 kts | 85° |
| 2026-04-26 21:07 | 50.89814 | 4.52552 | 518 ft | 110 kts | 322° |
| 2026-04-26 21:08 | 50.89686 | 4.51410 | 192 ft | 106 kts | 245° |
| 2026-04-26 21:08 | 50.89473 | 4.50470 | 177 ft | 74 kts | 252° |
| 2026-04-26 21:08 | 50.89315 | 4.49826 | 171 ft | 53 kts | 253° |
| 2026-04-26 21:08 | 50.89226 | 4.49371 | 169 ft | 24 kts | 300° |
| 2026-04-26 21:09 | 50.89269 | 4.49360 | 168 ft | 10 kts | 20° |
| 2026-04-26 21:09 | 50.89530 | 4.49473 | 155 ft | 65 kts | 14° |
| 2026-04-26 21:09 | 50.90093 | 4.49711 | 142 ft | 99 kts | 18° |
| 2026-04-26 21:09 | 50.90822 | 4.50011 | 159 ft | 112 kts | 18° |
| 2026-04-26 21:10 | 50.91233 | 4.50349 | 405 ft | 97 kts | 49° |
| 2026-04-26 21:10 | 50.91219 | 4.51358 | 585 ft | 101 kts | 118° |
| 2026-04-26 21:10 | 50.90822 | 4.52306 | 745 ft | 105 kts | 126° |
| 2026-04-26 21:10 | 50.90123 | 4.53115 | 903 ft | 104 kts | 224° |
| 2026-04-26 21:11 | 50.89898 | 4.52375 | 313 ft | 128 kts | 254° |
| 2026-04-26 21:11 | 50.89622 | 4.51135 | 183 ft | 102 kts | 250° |
| 2026-04-26 21:11 | 50.89447 | 4.50316 | 170 ft | 59 kts | 249° |
| 2026-04-26 21:11 | 50.89347 | 4.49954 | 171 ft | 14 kts | 187° |
| 2026-04-26 21:12 | 50.89369 | 4.50104 | 170 ft | 40 kts | 66° |
| 2026-04-26 21:12 | 50.89524 | 4.50729 | 191 ft | 78 kts | 70° |
| 2026-04-26 21:12 | 50.89745 | 4.51681 | 248 ft | 98 kts | 69° |
| 2026-04-26 21:12 | 50.89994 | 4.52736 | 334 ft | 106 kts | 69° |
| 2026-04-26 21:13 | 50.90255 | 4.53835 | 497 ft | 106 kts | 70° |
| 2026-04-26 21:13 | 50.90484 | 4.54921 | 750 ft | 100 kts | 69° |
| 2026-04-26 21:13 | 50.90745 | 4.55971 | 936 ft | 104 kts | 69° |
| 2026-04-26 21:13 | 50.90776 | 4.57127 | 1080 ft | 108 kts | 98° |
| 2026-04-26 21:14 | 50.90824 | 4.58189 | 1385 ft | 98 kts | 53° |
| 2026-04-26 21:14 | 50.91409 | 4.58991 | 1240 ft | 121 kts | 42° |
| 2026-04-26 21:14 | 50.91954 | 4.59371 | 1465 ft | 118 kts | 278° |
| 2026-04-26 21:14 | 50.91592 | 4.58101 | 1428 ft | 132 kts | 240° |
| 2026-04-26 21:15 | 50.91102 | 4.56744 | 1144 ft | 139 kts | 239° |
| 2026-04-26 21:15 | 50.90663 | 4.55479 | 825 ft | 125 kts | 244° |
| 2026-04-26 21:15 | 50.90355 | 4.54318 | 747 ft | 96 kts | 250° |
| 2026-04-26 21:15 | 50.90151 | 4.53449 | 536 ft | 80 kts | 250° |
| 2026-04-26 21:16 | 50.89964 | 4.52652 | 294 ft | 74 kts | 251° |
| 2026-04-26 21:16 | 50.89791 | 4.51895 | 176 ft | 73 kts | 249° |
| 2026-04-26 21:16 | 50.89650 | 4.51278 | 167 ft | 48 kts | 250° |
| 2026-04-26 21:16 | 50.89547 | 4.50850 | 168 ft | 37 kts | 248° |
| 2026-04-26 21:17 | 50.89496 | 4.50493 | 169 ft | 30 kts | 265° |
| 2026-04-26 21:17 | 50.89514 | 4.50186 | 165 ft | 27 kts | 282° |
| 2026-04-26 21:17 | 50.89509 | 4.49876 | 162 ft | 36 kts | 254° |
| 2026-04-26 21:17 | 50.89444 | 4.49529 | 160 ft | 30 kts | 271° |
| 2026-04-26 21:18 | 50.89576 | 4.49285 | 151 ft | 35 kts | 345° |
| 2026-04-26 21:18 | 50.89944 | 4.49381 | 126 ft | 70 kts | 18° |
| 2026-04-26 21:18 | 50.90340 | 4.49508 | 118 ft | 44 kts | 331° |
| 2026-04-26 21:18 | 50.90357 | 4.49261 | 119 ft | 28 kts | 224° |
| 2026-04-26 21:19 | 50.90194 | 4.48897 | 120 ft | 26 kts | 237° |
| 2026-04-26 21:19 | 50.90239 | 4.48727 | 117 ft | 17 kts | 336° |
| 2026-04-26 21:19 | 50.90247 | 4.48721 | 115 ft | 0 kts | 334° |
| 2026-04-26 21:19 | 50.90273 | 4.48697 | 116 ft | 8 kts | 319° |
| 2026-04-26 21:20 | 50.90308 | 4.48664 | 114 ft | 0 kts | 334° |
| 2026-04-26 21:20 | 50.90316 | 4.48657 | 114 ft | 0 kts | 332° |